sensor_id;sensor_type;location;lat;lon;timestamp;pressure;altitude;pressure_sealevel;temperature;humidity
41078;BME280;26823;42.662;23.352;2023-02-15T00:01:10;95951.28;;;1.18;77.80
41078;BME280;26823;42.662;23.352;2023-02-15T00:03:36;95964.16;;;1.14;78.89
41078;BME280;26823;42.662;23.352;2023-02-15T00:06:03;95954.03;;;1.03;79.15
41078;BME280;26823;42.662;23.352;2023-02-15T00:08:28;95951.19;;;1.04;79.21
41078;BME280;26823;42.662;23.352;2023-02-15T00:11:09;95963.00;;;1.17;78.99
41078;BME280;26823;42.662;23.352;2023-02-15T00:13:35;95965.09;;;1.28;78.66
41078;BME280;26823;42.662;23.352;2023-02-15T00:16:10;95980.84;;;1.23;78.81
41078;BME280;26823;42.662;23.352;2023-02-15T00:18:35;95974.91;;;1.21;78.91
41078;BME280;26823;42.662;23.352;2023-02-15T00:21:09;95979.28;;;1.28;78.91
41078;BME280;26823;42.662;23.352;2023-02-15T00:23:35;95967.22;;;1.11;78.68
41078;BME280;26823;42.662;23.352;2023-02-15T00:26:10;95978.97;;;1.17;79.24
41078;BME280;26823;42.662;23.352;2023-02-15T00:28:36;95967.09;;;1.19;79.06
41078;BME280;26823;42.662;23.352;2023-02-15T00:31:09;95967.09;;;1.19;78.82
41078;BME280;26823;42.662;23.352;2023-02-15T00:33:36;95973.97;;;1.07;79.18
41078;BME280;26823;42.662;23.352;2023-02-15T00:36:03;95975.28;;;1.18;79.38
41078;BME280;26823;42.662;23.352;2023-02-15T00:38:30;95979.53;;;1.12;79.34
41078;BME280;26823;42.662;23.352;2023-02-15T00:40:58;95986.06;;;1.09;79.64
41078;BME280;26823;42.662;23.352;2023-02-15T00:43:25;95937.41;;;0.79;79.41
41078;BME280;26823;42.662;23.352;2023-02-15T00:45:51;95977.63;;;1.06;79.50
41078;BME280;26823;42.662;23.352;2023-02-15T00:48:17;95987.47;;;1.27;79.57
41078;BME280;26823;42.662;23.352;2023-02-15T00:50:45;95992.84;;;1.34;78.51
41078;BME280;26823;42.662;23.352;2023-02-15T00:53:10;95987.03;;;1.23;78.78
41078;BME280;26823;42.662;23.352;2023-02-15T00:55:36;95975.78;;;1.06;79.96
41078;BME280;26823;42.662;23.352;2023-02-15T00:58:02;95972.50;;;1.26;79.14
41078;BME280;26823;42.662;23.352;2023-02-15T01:00:27;95988.28;;;1.27;79.23
41078;BME280;26823;42.662;23.352;2023-02-15T01:02:52;95963.16;;;1.15;79.11
41078;BME280;26823;42.662;23.352;2023-02-15T01:05:18;95964.94;;;1.29;78.71
41078;BME280;26823;42.662;23.352;2023-02-15T01:07:43;95962.19;;;1.23;78.89
41078;BME280;26823;42.662;23.352;2023-02-15T01:10:15;95965.38;;;1.11;78.97
41078;BME280;26823;42.662;23.352;2023-02-15T01:12:41;95961.50;;;0.92;79.92
41078;BME280;26823;42.662;23.352;2023-02-15T01:15:07;95942.78;;;0.86;79.69
41078;BME280;26823;42.662;23.352;2023-02-15T01:17:32;95973.97;;;1.07;80.22
41078;BME280;26823;42.662;23.352;2023-02-15T01:19:58;95953.41;;;1.01;79.41
41078;BME280;26823;42.662;23.352;2023-02-15T01:22:24;95971.34;;;1.13;79.97
41078;BME280;26823;42.662;23.352;2023-02-15T01:24:50;95968.88;;;1.12;79.72
41078;BME280;26823;42.662;23.352;2023-02-15T01:27:15;95973.91;;;1.22;79.56
41078;BME280;26823;42.662;23.352;2023-02-15T01:29:40;95961.09;;;1.10;79.39
41078;BME280;26823;42.662;23.352;2023-02-15T01:32:06;95974.56;;;1.09;79.71
41078;BME280;26823;42.662;23.352;2023-02-15T01:34:31;95965.13;;;1.06;80.02
41078;BME280;26823;42.662;23.352;2023-02-15T01:36:57;95959.78;;;1.06;80.56
41078;BME280;26823;42.662;23.352;2023-02-15T01:39:22;95955.16;;;1.15;79.55
41078;BME280;26823;42.662;23.352;2023-02-15T01:41:48;95940.63;;;0.96;79.98
41078;BME280;26823;42.662;23.352;2023-02-15T01:47:26;95943.63;;;1.08;80.61
41078;BME280;26823;42.662;23.352;2023-02-15T01:50:10;95943.09;;;0.97;80.54
41078;BME280;26823;42.662;23.352;2023-02-15T01:52:40;95940.88;;;1.01;79.99
41078;BME280;26823;42.662;23.352;2023-02-15T01:55:10;95945.47;;;1.07;80.33
41078;BME280;26823;42.662;23.352;2023-02-15T01:57:38;95947.88;;;1.02;80.17
41078;BME280;26823;42.662;23.352;2023-02-15T02:00:04;95939.25;;;1.00;80.67
41078;BME280;26823;42.662;23.352;2023-02-15T02:02:31;95945.22;;;1.02;80.91
41078;BME280;26823;42.662;23.352;2023-02-15T02:04:59;95943.94;;;0.98;80.82
41078;BME280;26823;42.662;23.352;2023-02-15T02:07:32;95938.81;;;0.96;80.91
41078;BME280;26823;42.662;23.352;2023-02-15T02:09:59;95917.66;;;0.73;81.18
41078;BME280;26823;42.662;23.352;2023-02-15T02:12:25;95938.88;;;0.81;81.85
41078;BME280;26823;42.662;23.352;2023-02-15T02:14:51;95913.25;;;0.59;81.70
41078;BME280;26823;42.662;23.352;2023-02-15T02:17:53;95951.94;;;0.98;81.41
41078;BME280;26823;42.662;23.352;2023-02-15T02:23:39;95959.97;;;0.83;81.99
41078;BME280;26823;42.662;23.352;2023-02-15T02:27:19;95966.81;;;0.92;81.78
41078;BME280;26823;42.662;23.352;2023-02-15T02:38:01;95966.41;;;1.10;81.24
41078;BME280;26823;42.662;23.352;2023-02-15T02:46:13;95962.84;;;1.03;81.84
41078;BME280;26823;42.662;23.352;2023-02-15T02:48:41;95960.94;;;0.97;82.20
41078;BME280;26823;42.662;23.352;2023-02-15T02:51:06;95943.09;;;0.97;81.59
41078;BME280;26823;42.662;23.352;2023-02-15T02:53:32;95953.50;;;1.14;81.31
41078;BME280;26823;42.662;23.352;2023-02-15T02:56:04;95963.09;;;1.30;80.70
41078;BME280;26823;42.662;23.352;2023-02-15T02:58:37;95956.00;;;1.16;81.04
41078;BME280;26823;42.662;23.352;2023-02-15T03:03:44;95970.63;;;1.26;80.22
41078;BME280;26823;42.662;23.352;2023-02-15T03:06:16;95978.44;;;1.28;80.41
41078;BME280;26823;42.662;23.352;2023-02-15T03:08:47;95975.09;;;1.41;80.77
41078;BME280;26823;42.662;23.352;2023-02-15T03:11:14;95982.44;;;1.39;79.69
41078;BME280;26823;42.662;23.352;2023-02-15T03:13:40;95971.53;;;1.34;80.13
41078;BME280;26823;42.662;23.352;2023-02-15T03:16:07;95975.00;;;1.34;80.32
41078;BME280;26823;42.662;23.352;2023-02-15T03:19:17;95981.22;;;1.41;79.67
41078;BME280;26823;42.662;23.352;2023-02-15T03:21:51;95971.13;;;1.37;79.90
41078;BME280;26823;42.662;23.352;2023-02-15T03:24:56;95980.03;;;1.44;79.73
41078;BME280;26823;42.662;23.352;2023-02-15T03:27:24;95985.50;;;1.36;80.02
41078;BME280;26823;42.662;23.352;2023-02-15T03:29:55;95986.28;;;1.58;80.08
41078;BME280;26823;42.662;23.352;2023-02-15T03:32:23;95982.97;;;1.56;80.26
41078;BME280;26823;42.662;23.352;2023-02-15T03:34:50;95981.19;;;1.63;79.37
41078;BME280;26823;42.662;23.352;2023-02-15T03:42:49;95972.13;;;1.57;80.24
41078;BME280;26823;42.662;23.352;2023-02-15T03:45:24;95969.63;;;1.56;79.82
41078;BME280;26823;42.662;23.352;2023-02-15T03:47:52;95957.56;;;1.32;80.30
41078;BME280;26823;42.662;23.352;2023-02-15T03:50:23;95953.06;;;1.32;80.64
41078;BME280;26823;42.662;23.352;2023-02-15T03:53:10;95977.47;;;1.57;79.92
41078;BME280;26823;42.662;23.352;2023-02-15T03:55:38;95976.34;;;1.45;80.03
41078;BME280;26823;42.662;23.352;2023-02-15T03:58:03;95972.66;;;1.46;80.08
41078;BME280;26823;42.662;23.352;2023-02-15T04:01:11;95989.19;;;1.63;80.17
41078;BME280;26823;42.662;23.352;2023-02-15T04:04:03;95977.03;;;1.54;79.37
41078;BME280;26823;42.662;23.352;2023-02-15T04:06:32;95981.09;;;1.78;79.06
41078;BME280;26823;42.662;23.352;2023-02-15T04:08:58;95974.19;;;1.62;79.42
41078;BME280;26823;42.662;23.352;2023-02-15T04:11:41;95984.25;;;1.60;79.57
41078;BME280;26823;42.662;23.352;2023-02-15T04:14:07;96002.56;;;1.70;79.08
41078;BME280;26823;42.662;23.352;2023-02-15T04:16:51;95997.53;;;1.53;79.64
41078;BME280;26823;42.662;23.352;2023-02-15T04:19:16;95993.47;;;1.57;79.39
41078;BME280;26823;42.662;23.352;2023-02-15T04:22:00;95987.97;;;1.66;79.59
41078;BME280;26823;42.662;23.352;2023-02-15T04:24:44;96008.75;;;1.70;79.65
41078;BME280;26823;42.662;23.352;2023-02-15T04:27:28;96005.00;;;1.65;79.39
41078;BME280;26823;42.662;23.352;2023-02-15T04:29:53;96023.06;;;1.62;79.91
41078;BME280;26823;42.662;23.352;2023-02-15T04:32:18;96014.81;;;1.57;80.29
41078;BME280;26823;42.662;23.352;2023-02-15T04:34:44;96017.53;;;1.64;80.34
41078;BME280;26823;42.662;23.352;2023-02-15T04:37:09;96021.69;;;1.73;79.84
41078;BME280;26823;42.662;23.352;2023-02-15T04:39:35;96027.03;;;1.73;79.83
41078;BME280;26823;42.662;23.352;2023-02-15T04:42:01;96033.81;;;1.76;79.50
41078;BME280;26823;42.662;23.352;2023-02-15T04:44:26;96031.75;;;1.71;79.87
41078;BME280;26823;42.662;23.352;2023-02-15T04:46:51;96013.00;;;1.65;80.03
41078;BME280;26823;42.662;23.352;2023-02-15T04:49:17;96017.81;;;1.76;79.97
41078;BME280;26823;42.662;23.352;2023-02-15T04:51:42;96010.09;;;1.59;79.92
41078;BME280;26823;42.662;23.352;2023-02-15T04:54:08;96017.28;;;1.59;80.27
41078;BME280;26823;42.662;23.352;2023-02-15T04:56:33;96029.06;;;1.71;80.17
41078;BME280;26823;42.662;23.352;2023-02-15T04:59:00;96014.03;;;1.63;80.88
41078;BME280;26823;42.662;23.352;2023-02-15T05:01:25;96030.66;;;1.66;80.39
41078;BME280;26823;42.662;23.352;2023-02-15T05:03:51;96018.56;;;1.70;80.11
41078;BME280;26823;42.662;23.352;2023-02-15T05:06:16;96038.53;;;1.74;79.98
41078;BME280;26823;42.662;23.352;2023-02-15T05:08:41;96043.97;;;1.87;79.98
41078;BME280;26823;42.662;23.352;2023-02-15T05:11:07;96023.16;;;1.76;79.42
41078;BME280;26823;42.662;23.352;2023-02-15T05:13:32;96036.19;;;1.64;80.50
41078;BME280;26823;42.662;23.352;2023-02-15T05:15:57;96033.28;;;1.59;81.22
41078;BME280;26823;42.662;23.352;2023-02-15T05:18:23;96033.78;;;1.69;80.00
41078;BME280;26823;42.662;23.352;2023-02-15T05:20:48;96050.75;;;1.90;79.71
41078;BME280;26823;42.662;23.352;2023-02-15T05:23:14;96050.13;;;1.88;80.34
41078;BME280;26823;42.662;23.352;2023-02-15T05:25:40;96045.94;;;1.78;79.31
41078;BME280;26823;42.662;23.352;2023-02-15T05:28:27;96069.72;;;1.73;80.10
41078;BME280;26823;42.662;23.352;2023-02-15T05:31:15;96061.25;;;1.70;80.01
41078;BME280;26823;42.662;23.352;2023-02-15T05:33:42;96012.47;;;1.48;80.28
41078;BME280;26823;42.662;23.352;2023-02-15T05:36:08;96063.22;;;1.83;80.08
41078;BME280;26823;42.662;23.352;2023-02-15T05:38:34;96056.19;;;2.03;79.95
41078;BME280;26823;42.662;23.352;2023-02-15T05:40:59;96070.19;;;2.05;79.66
41078;BME280;26823;42.662;23.352;2023-02-15T05:43:25;96064.03;;;2.11;78.95
41078;BME280;26823;42.662;23.352;2023-02-15T05:45:53;96074.56;;;2.13;78.74
41078;BME280;26823;42.662;23.352;2023-02-15T05:48:20;96074.59;;;1.91;78.98
41078;BME280;26823;42.662;23.352;2023-02-15T05:50:46;96069.88;;;1.93;79.13
41078;BME280;26823;42.662;23.352;2023-02-15T05:53:12;96064.81;;;1.77;79.60
41078;BME280;26823;42.662;23.352;2023-02-15T05:55:38;96048.44;;;1.80;79.08
41078;BME280;26823;42.662;23.352;2023-02-15T05:58:05;96077.31;;;1.98;78.88
41078;BME280;26823;42.662;23.352;2023-02-15T06:00:30;96076.53;;;2.04;78.44
41078;BME280;26823;42.662;23.352;2023-02-15T06:02:56;96056.00;;;2.05;78.07
41078;BME280;26823;42.662;23.352;2023-02-15T06:05:22;96079.69;;;1.65;79.71
41078;BME280;26823;42.662;23.352;2023-02-15T06:07:48;96068.09;;;1.72;79.97
41078;BME280;26823;42.662;23.352;2023-02-15T06:10:13;96053.78;;;1.80;79.58
41078;BME280;26823;42.662;23.352;2023-02-15T06:12:39;96066.88;;;2.03;78.51
41078;BME280;26823;42.662;23.352;2023-02-15T06:15:04;96067.88;;;2.02;78.01
41078;BME280;26823;42.662;23.352;2023-02-15T06:17:30;96058.88;;;2.03;78.37
41078;BME280;26823;42.662;23.352;2023-02-15T06:19:55;96073.91;;;2.11;77.70
41078;BME280;26823;42.662;23.352;2023-02-15T06:22:23;96073.66;;;2.06;77.83
41078;BME280;26823;42.662;23.352;2023-02-15T06:24:48;96075.41;;;2.20;77.28
41078;BME280;26823;42.662;23.352;2023-02-15T06:27:14;96072.34;;;2.23;76.85
41078;BME280;26823;42.662;23.352;2023-02-15T06:29:39;96083.31;;;2.35;76.98
41078;BME280;26823;42.662;23.352;2023-02-15T06:32:05;96082.28;;;2.36;76.75
41078;BME280;26823;42.662;23.352;2023-02-15T06:34:31;96080.69;;;2.42;76.92
41078;BME280;26823;42.662;23.352;2023-02-15T06:36:56;96068.38;;;2.41;76.48
41078;BME280;26823;42.662;23.352;2023-02-15T06:39:22;96064.63;;;2.35;76.61
41078;BME280;26823;42.662;23.352;2023-02-15T06:41:47;96081.75;;;2.48;76.58
41078;BME280;26823;42.662;23.352;2023-02-15T06:44:13;96070.06;;;2.49;75.78
41078;BME280;26823;42.662;23.352;2023-02-15T06:46:38;96082.66;;;2.61;75.24
41078;BME280;26823;42.662;23.352;2023-02-15T06:49:04;96081.19;;;2.59;75.56
41078;BME280;26823;42.662;23.352;2023-02-15T06:51:29;96081.22;;;2.66;75.05
41078;BME280;26823;42.662;23.352;2023-02-15T06:53:55;96058.59;;;2.61;74.52
41078;BME280;26823;42.662;23.352;2023-02-15T06:56:20;96083.31;;;2.70;74.70
41078;BME280;26823;42.662;23.352;2023-02-15T06:58:46;96079.09;;;2.96;74.40
41078;BME280;26823;42.662;23.352;2023-02-15T07:01:11;96086.97;;;3.04;73.11
41078;BME280;26823;42.662;23.352;2023-02-15T07:03:37;96083.88;;;3.01;73.45
41078;BME280;26823;42.662;23.352;2023-02-15T07:06:04;96072.59;;;3.05;72.84
41078;BME280;26823;42.662;23.352;2023-02-15T07:08:34;96083.13;;;3.27;72.07
41078;BME280;26823;42.662;23.352;2023-02-15T07:10:59;96080.41;;;3.20;72.68
41078;BME280;26823;42.662;23.352;2023-02-15T07:13:43;96076.88;;;3.06;73.05
41078;BME280;26823;42.662;23.352;2023-02-15T07:16:09;96056.34;;;3.07;72.33
41078;BME280;26823;42.662;23.352;2023-02-15T07:18:35;96068.16;;;3.53;70.18
41078;BME280;26823;42.662;23.352;2023-02-15T07:21:01;96096.78;;;3.59;69.87
41078;BME280;26823;42.662;23.352;2023-02-15T07:23:26;96095.38;;;3.83;69.29
41078;BME280;26823;42.662;23.352;2023-02-15T07:25:59;96097.84;;;4.05;68.89
41078;BME280;26823;42.662;23.352;2023-02-15T07:28:25;96088.19;;;4.31;67.94
41078;BME280;26823;42.662;23.352;2023-02-15T07:30:51;96059.13;;;3.87;67.94
41078;BME280;26823;42.662;23.352;2023-02-15T07:33:16;96088.41;;;4.16;67.71
41078;BME280;26823;42.662;23.352;2023-02-15T07:38:14;96049.06;;;4.88;64.37
41078;BME280;26823;42.662;23.352;2023-02-15T07:40:40;96080.13;;;5.55;61.98
41078;BME280;26823;42.662;23.352;2023-02-15T07:43:05;96069.63;;;5.79;60.84
41078;BME280;26823;42.662;23.352;2023-02-15T07:45:31;96073.59;;;6.08;59.85
41078;BME280;26823;42.662;23.352;2023-02-15T07:47:56;96076.97;;;6.66;57.78
41078;BME280;26823;42.662;23.352;2023-02-15T07:50:21;96079.88;;;7.39;54.86
41078;BME280;26823;42.662;23.352;2023-02-15T07:52:47;96072.34;;;7.59;53.76
41078;BME280;26823;42.662;23.352;2023-02-15T07:55:12;96054.09;;;8.27;51.58
41078;BME280;26823;42.662;23.352;2023-02-15T07:57:45;96084.03;;;9.26;48.71
41078;BME280;26823;42.662;23.352;2023-02-15T08:00:13;96080.13;;;9.05;48.92
41078;BME280;26823;42.662;23.352;2023-02-15T08:02:39;96064.09;;;8.51;50.25
41078;BME280;26823;42.662;23.352;2023-02-15T08:05:05;96074.38;;;6.78;54.79
41078;BME280;26823;42.662;23.352;2023-02-15T08:07:31;96073.09;;;6.99;54.00
41078;BME280;26823;42.662;23.352;2023-02-15T08:09:56;96072.31;;;6.36;56.71
41078;BME280;26823;42.662;23.352;2023-02-15T08:12:21;96043.34;;;5.87;58.82
41078;BME280;26823;42.662;23.352;2023-02-15T08:14:47;96081.09;;;5.93;59.62
41078;BME280;26823;42.662;23.352;2023-02-15T08:17:12;96080.13;;;5.55;60.42
41078;BME280;26823;42.662;23.352;2023-02-15T08:19:40;96077.25;;;5.11;61.94
41078;BME280;26823;42.662;23.352;2023-02-15T08:22:07;96072.97;;;4.90;62.94
41078;BME280;26823;42.662;23.352;2023-02-15T08:24:36;96078.88;;;5.12;62.46
41078;BME280;26823;42.662;23.352;2023-02-15T08:27:02;96069.53;;;4.69;64.06
41078;BME280;26823;42.662;23.352;2023-02-15T08:29:30;96085.13;;;4.99;63.06
41078;BME280;26823;42.662;23.352;2023-02-15T08:32:02;96067.28;;;4.73;62.63
41078;BME280;26823;42.662;23.352;2023-02-15T08:34:30;96068.50;;;4.77;63.82
41078;BME280;26823;42.662;23.352;2023-02-15T08:36:56;96085.09;;;5.06;62.95
41078;BME280;26823;42.662;23.352;2023-02-15T08:39:22;96079.06;;;4.65;64.12
41078;BME280;26823;42.662;23.352;2023-02-15T08:41:48;96086.97;;;4.99;62.89
41078;BME280;26823;42.662;23.352;2023-02-15T08:44:17;96086.13;;;5.05;63.37
41078;BME280;26823;42.662;23.352;2023-02-15T08:46:44;96082.47;;;4.93;62.84
41078;BME280;26823;42.662;23.352;2023-02-15T08:49:13;96095.47;;;4.96;65.31
41078;BME280;26823;42.662;23.352;2023-02-15T08:51:40;96085.88;;;4.61;63.13
41078;BME280;26823;42.662;23.352;2023-02-15T08:54:08;96087.69;;;4.74;63.41
41078;BME280;26823;42.662;23.352;2023-02-15T08:56:36;96088.06;;;4.84;62.34
41078;BME280;26823;42.662;23.352;2023-02-15T08:59:03;96077.41;;;4.64;62.05
41078;BME280;26823;42.662;23.352;2023-02-15T09:01:31;96097.53;;;4.87;62.37
41078;BME280;26823;42.662;23.352;2023-02-15T09:04:02;96087.81;;;4.99;61.41
41078;BME280;26823;42.662;23.352;2023-02-15T09:06:36;96084.66;;;5.16;59.94
41078;BME280;26823;42.662;23.352;2023-02-15T09:09:02;96084.69;;;5.02;59.95
41078;BME280;26823;42.662;23.352;2023-02-15T09:11:30;96069.94;;;4.86;60.13
41078;BME280;26823;42.662;23.352;2023-02-15T09:14:00;96097.06;;;5.03;59.94
41078;BME280;26823;42.662;23.352;2023-02-15T09:16:28;96081.53;;;5.19;60.48
41078;BME280;26823;42.662;23.352;2023-02-15T09:18:54;96081.97;;;5.09;60.25
41078;BME280;26823;42.662;23.352;2023-02-15T09:21:23;96090.69;;;5.50;59.68
41078;BME280;26823;42.662;23.352;2023-02-15T09:23:51;96092.84;;;5.66;58.83
41078;BME280;26823;42.662;23.352;2023-02-15T09:26:21;96091.63;;;6.01;57.52
41078;BME280;26823;42.662;23.352;2023-02-15T09:32:26;96057.41;;;6.15;56.46
41078;BME280;26823;42.662;23.352;2023-02-15T09:34:52;96084.69;;;6.12;56.88
41078;BME280;26823;42.662;23.352;2023-02-15T09:37:17;96086.66;;;6.23;57.26
41078;BME280;26823;42.662;23.352;2023-02-15T09:39:51;96052.47;;;6.12;56.09
41078;BME280;26823;42.662;23.352;2023-02-15T09:54:30;96087.53;;;5.92;55.84
41078;BME280;26823;42.662;23.352;2023-02-15T09:57:16;96080.69;;;5.96;55.75
41078;BME280;26823;42.662;23.352;2023-02-15T10:05:29;96085.31;;;6.39;56.37
41078;BME280;26823;42.662;23.352;2023-02-15T10:14:15;96087.75;;;6.41;55.66
41078;BME280;26823;42.662;23.352;2023-02-15T10:16:59;96068.84;;;7.10;52.78
41078;BME280;26823;42.662;23.352;2023-02-15T10:27:46;96061.38;;;6.75;52.42
41078;BME280;26823;42.662;23.352;2023-02-15T10:33:03;96053.50;;;7.59;50.70
41078;BME280;26823;42.662;23.352;2023-02-15T10:38:05;96065.44;;;8.18;49.69
41078;BME280;26823;42.662;23.352;2023-02-15T10:45:58;96044.91;;;7.93;50.18
41078;BME280;26823;42.662;23.352;2023-02-15T10:48:37;96046.66;;;7.99;50.67
41078;BME280;26823;42.662;23.352;2023-02-15T10:51:37;96052.66;;;8.01;50.35
41078;BME280;26823;42.662;23.352;2023-02-15T10:54:23;96048.69;;;8.15;49.01
41078;BME280;26823;42.662;23.352;2023-02-15T10:59:54;96043.44;;;9.61;45.78
41078;BME280;26823;42.662;23.352;2023-02-15T11:07:28;96035.97;;;12.89;37.59
41078;BME280;26823;42.662;23.352;2023-02-15T11:12:52;96034.72;;;13.18;36.47
41078;BME280;26823;42.662;23.352;2023-02-15T11:15:28;96039.59;;;13.90;35.52
41078;BME280;26823;42.662;23.352;2023-02-15T11:18:00;96039.94;;;13.35;35.90
41078;BME280;26823;42.662;23.352;2023-02-15T11:20:37;96046.13;;;12.62;36.75
41078;BME280;26823;42.662;23.352;2023-02-15T11:23:13;96036.84;;;13.05;36.35
41078;BME280;26823;42.662;23.352;2023-02-15T11:25:54;96036.00;;;13.00;37.09
41078;BME280;26823;42.662;23.352;2023-02-15T11:28:45;96017.25;;;13.67;35.38
41078;BME280;26823;42.662;23.352;2023-02-15T11:31:17;96022.72;;;13.93;34.69
41078;BME280;26823;42.662;23.352;2023-02-15T11:33:47;96029.34;;;13.33;35.50
41078;BME280;26823;42.662;23.352;2023-02-15T11:36:40;96032.88;;;12.33;37.14
41078;BME280;26823;42.662;23.352;2023-02-15T11:39:15;96029.09;;;12.01;37.95
41078;BME280;26823;42.662;23.352;2023-02-15T11:41:49;96010.25;;;12.17;37.79
41078;BME280;26823;42.662;23.352;2023-02-15T11:44:31;96013.75;;;13.03;35.83
41078;BME280;26823;42.662;23.352;2023-02-15T11:46:58;95981.75;;;13.15;35.83
41078;BME280;26823;42.662;23.352;2023-02-15T11:49:34;95998.50;;;12.92;35.76
41078;BME280;26823;42.662;23.352;2023-02-15T11:52:06;95999.53;;;13.54;35.14
41078;BME280;26823;42.662;23.352;2023-02-15T11:54:37;96006.25;;;12.30;37.47
41078;BME280;26823;42.662;23.352;2023-02-15T11:57:19;95998.78;;;13.79;34.70
41078;BME280;26823;42.662;23.352;2023-02-15T12:00:14;96003.53;;;12.30;36.08
41078;BME280;26823;42.662;23.352;2023-02-15T12:02:45;95995.31;;;12.14;37.66
41078;BME280;26823;42.662;23.352;2023-02-15T12:05:16;95987.03;;;12.79;36.00
41078;BME280;26823;42.662;23.352;2023-02-15T12:07:57;95980.63;;;13.01;36.18
41078;BME280;26823;42.662;23.352;2023-02-15T12:10:40;95966.53;;;12.51;37.09
41078;BME280;26823;42.662;23.352;2023-02-15T12:13:16;95985.31;;;11.87;37.55
41078;BME280;26823;42.662;23.352;2023-02-15T12:15:56;95988.06;;;11.65;39.04
41078;BME280;26823;42.662;23.352;2023-02-15T12:18:43;95986.56;;;12.98;36.12
41078;BME280;26823;42.662;23.352;2023-02-15T12:21:12;95979.13;;;12.30;37.12
41078;BME280;26823;42.662;23.352;2023-02-15T12:24:01;95973.50;;;11.71;37.86
41078;BME280;26823;42.662;23.352;2023-02-15T12:26:37;95959.84;;;11.88;37.64
41078;BME280;26823;42.662;23.352;2023-02-15T12:29:16;95965.72;;;11.80;37.81
41078;BME280;26823;42.662;23.352;2023-02-15T12:31:47;95959.66;;;11.40;38.71
41078;BME280;26823;42.662;23.352;2023-02-15T12:34:30;95966.22;;;11.17;39.11
41078;BME280;26823;42.662;23.352;2023-02-15T12:37:01;95955.06;;;12.44;37.36
41078;BME280;26823;42.662;23.352;2023-02-15T12:39:31;95961.97;;;12.62;37.49
41078;BME280;26823;42.662;23.352;2023-02-15T12:42:04;95954.63;;;12.14;37.17
41078;BME280;26823;42.662;23.352;2023-02-15T12:44:31;95962.13;;;11.69;38.70
41078;BME280;26823;42.662;23.352;2023-02-15T12:47:22;95942.00;;;11.65;38.87
41078;BME280;26823;42.662;23.352;2023-02-15T12:52:33;95946.16;;;11.73;38.27
41078;BME280;26823;42.662;23.352;2023-02-15T12:55:19;95927.59;;;9.48;43.51
41078;BME280;26823;42.662;23.352;2023-02-15T12:57:45;95923.75;;;10.73;41.11
41078;BME280;26823;42.662;23.352;2023-02-15T13:02:52;95935.25;;;11.68;38.62
41078;BME280;26823;42.662;23.352;2023-02-15T13:05:40;95938.28;;;12.04;37.95
41078;BME280;26823;42.662;23.352;2023-02-15T13:13:28;95921.16;;;11.38;38.90
41078;BME280;26823;42.662;23.352;2023-02-15T13:16:02;95926.44;;;10.51;40.43
41078;BME280;26823;42.662;23.352;2023-02-15T13:18:36;95919.72;;;9.46;43.02
41078;BME280;26823;42.662;23.352;2023-02-15T13:21:14;95912.28;;;10.27;41.75
41078;BME280;26823;42.662;23.352;2023-02-15T13:27:03;95924.81;;;10.50;42.00
41078;BME280;26823;42.662;23.352;2023-02-15T13:29:32;95913.56;;;10.81;40.66
41078;BME280;26823;42.662;23.352;2023-02-15T13:32:05;95929.38;;;11.16;40.02
41078;BME280;26823;42.662;23.352;2023-02-15T13:34:34;95910.28;;;10.56;41.60
41078;BME280;26823;42.662;23.352;2023-02-15T13:39:40;95924.22;;;9.75;44.09
41078;BME280;26823;42.662;23.352;2023-02-15T13:42:23;95919.78;;;10.81;40.59
41078;BME280;26823;42.662;23.352;2023-02-15T13:53:33;95927.00;;;9.46;44.55
41078;BME280;26823;42.662;23.352;2023-02-15T13:56:11;95939.47;;;9.64;44.12
41078;BME280;26823;42.662;23.352;2023-02-15T14:10:38;95944.53;;;9.60;44.05
41078;BME280;26823;42.662;23.352;2023-02-15T14:16:31;95950.22;;;9.01;45.36
41078;BME280;26823;42.662;23.352;2023-02-15T14:21:48;95941.91;;;9.49;44.55
41078;BME280;26823;42.662;23.352;2023-02-15T14:24:42;95925.84;;;9.25;44.47
41078;BME280;26823;42.662;23.352;2023-02-15T14:27:16;95960.78;;;9.32;46.12
41078;BME280;26823;42.662;23.352;2023-02-15T14:29:51;95951.25;;;9.75;43.83
41078;BME280;26823;42.662;23.352;2023-02-15T14:32:39;95962.88;;;9.58;43.96
41078;BME280;26823;42.662;23.352;2023-02-15T14:35:23;95961.72;;;9.08;45.05
41078;BME280;26823;42.662;23.352;2023-02-15T14:53:14;95965.56;;;6.80;52.89
41078;BME280;26823;42.662;23.352;2023-02-15T14:55:40;95928.59;;;6.57;53.60
41078;BME280;26823;42.662;23.352;2023-02-15T14:58:10;95910.63;;;6.39;53.93
41078;BME280;26823;42.662;23.352;2023-02-15T15:00:39;95922.88;;;6.35;54.07
41078;BME280;26823;42.662;23.352;2023-02-15T15:03:21;95929.50;;;6.32;54.21
41078;BME280;26823;42.662;23.352;2023-02-15T15:05:54;95963.75;;;6.56;55.04
41078;BME280;26823;42.662;23.352;2023-02-15T15:08:37;95953.63;;;6.58;54.69
41078;BME280;26823;42.662;23.352;2023-02-15T15:11:49;95932.41;;;6.12;55.72
41078;BME280;26823;42.662;23.352;2023-02-15T15:17:03;95944.44;;;6.10;55.82
41078;BME280;26823;42.662;23.352;2023-02-15T15:22:21;95932.44;;;5.36;57.48
41078;BME280;26823;42.662;23.352;2023-02-15T15:25:02;95951.66;;;5.33;59.03
41078;BME280;26823;42.662;23.352;2023-02-15T15:27:44;95968.69;;;5.46;57.97
41078;BME280;26823;42.662;23.352;2023-02-15T15:33:03;95963.63;;;4.99;59.82
41078;BME280;26823;42.662;23.352;2023-02-15T15:49:37;95974.31;;;4.67;61.72
41078;BME280;26823;42.662;23.352;2023-02-15T15:52:18;95960.19;;;4.46;62.02
41078;BME280;26823;42.662;23.352;2023-02-15T15:54:48;95988.56;;;4.61;62.00
41078;BME280;26823;42.662;23.352;2023-02-15T16:02:53;95989.88;;;4.31;63.45
41078;BME280;26823;42.662;23.352;2023-02-15T16:05:21;95988.25;;;4.30;63.99
41078;BME280;26823;42.662;23.352;2023-02-15T16:07:46;95977.53;;;4.30;64.18
41078;BME280;26823;42.662;23.352;2023-02-15T16:10:26;95980.44;;;4.15;64.82
41078;BME280;26823;42.662;23.352;2023-02-15T16:12:53;95983.56;;;4.05;65.56